Minot International Airport
KMOT : now visible

Airfield :











YOU CAN JOIN US ON...

 
LOGIN :

Register | Disclaimer

   EN    FR    IT 

 









Legend :    VFR   Marginal VFR   IFR   Intensive IFR   Very Intensive IFR
Visi :
Ceiling :
>= 8 km
>= 3000ft
5 to 8 km
1000 to 3000 ft
1500m to 5 km
500 to 1000 ft
800 to 1500m
200 to 500 ft
< 800m
< 200 ft
Symbols :   Thunderstorms  Fog  Heavy snow  Heavy precipitations  Wind > 20 kt






- Airport Elevation : 1716 ft
- IATA code : MOT


KMOT - Minot International

CURRENT METAR :
  • 200654Z AUTO 26007KT 10SM BKN060 08/04 A2929 RMK AO2 SLP925 T00780044

EXPIRED METARs :
  • 200554Z AUTO 23006KT 10SM OVC065 08/06 A2930 RMK AO2 SLP927 60007 T00780056 10106 20061 401330061 58008
  • 200454Z AUTO 25005KT 10SM FEW033 BKN046 OVC060 08/06 A2931 RMK AO2 RAB42E54 SLP931 P0000 T00780056

TAF KMOT
Valid from the 20 at 06:00 until the 21 at 06:00 UTC


200544Z 2006/2106 VRB04KT P6SM BKN025
FM200900 33014G23KT P6SM VCSH BKN007
FM201300 35019G31KT 4SM -SHRASN BR OVC007
FM201700 35021G30KT 4SM -SHRA BR OVC015
FM202300 34018G26KT P6SM VCSH BKN035
FM210400 33008KT P6SM BKN040
KZMP FIR / North America



MET'MAP, your aeronautical weather chart ! - Copyright ORBIFLY December 2007 - Disclaimer

ORBIFLY MET'MAP TEAM :

Programming & Development : Alexandra Zaïnal
Original concept : Baudouin d'Aumeries
Technical & hardware support : Manuel Goepfert
Assistance : Marc-Olivier Méhu

Contact : metmap@orbifly.com




SOURCES & CREDITS :

   NOAA       Earth
Advisory